sensor_id;sensor_type;location;lat;lon;timestamp;pressure;altitude;pressure_sealevel;temperature;humidity
75555;BME280;66087;53.126;17.960;2023-09-19T00:00:44;99901.82;;;20.97;63.58
75555;BME280;66087;53.126;17.960;2023-09-19T00:03:53;99898.86;;;20.95;63.60
75555;BME280;66087;53.126;17.960;2023-09-19T00:06:30;99898.30;;;20.93;63.67
75555;BME280;66087;53.126;17.960;2023-09-19T00:09:17;99904.32;;;20.92;63.84
75555;BME280;66087;53.126;17.960;2023-09-19T00:11:51;99908.44;;;20.90;64.09
75555;BME280;66087;53.126;17.960;2023-09-19T00:14:58;99914.61;;;20.88;64.07
75555;BME280;66087;53.126;17.960;2023-09-19T00:17:33;99920.53;;;20.88;64.50
75555;BME280;66087;53.126;17.960;2023-09-19T00:20:21;99924.40;;;20.87;64.53
75555;BME280;66087;53.126;17.960;2023-09-19T00:22:55;99930.48;;;20.88;64.93
75555;BME280;66087;53.126;17.960;2023-09-19T00:25:37;99939.85;;;20.92;65.00
75555;BME280;66087;53.126;17.960;2023-09-19T00:28:18;99934.04;;;20.96;65.01
75555;BME280;66087;53.126;17.960;2023-09-19T00:30:58;99932.66;;;21.00;65.12
75555;BME280;66087;53.126;17.960;2023-09-19T00:33:40;99944.45;;;21.02;65.44
75555;BME280;66087;53.126;17.960;2023-09-19T00:36:22;99941.70;;;21.02;65.84
75555;BME280;66087;53.126;17.960;2023-09-19T00:39:02;99933.51;;;21.01;65.76
75555;BME280;66087;53.126;17.960;2023-09-19T00:41:43;99930.92;;;20.98;66.12
75555;BME280;66087;53.126;17.960;2023-09-19T00:44:24;99930.81;;;20.94;66.70
75555;BME280;66087;53.126;17.960;2023-09-19T00:47:07;99928.29;;;20.90;66.15
75555;BME280;66087;53.126;17.960;2023-09-19T00:49:49;99926.96;;;20.87;66.97
75555;BME280;66087;53.126;17.960;2023-09-19T00:52:31;99916.14;;;20.81;66.48
75555;BME280;66087;53.126;17.960;2023-09-19T00:55:11;99915.67;;;20.78;66.99
75555;BME280;66087;53.126;17.960;2023-09-19T00:57:57;99908.38;;;20.75;66.89
75555;BME280;66087;53.126;17.960;2023-09-19T01:00:40;99913.55;;;20.72;67.00
75555;BME280;66087;53.126;17.960;2023-09-19T01:03:35;99914.36;;;20.68;67.06
75555;BME280;66087;53.126;17.960;2023-09-19T01:06:30;99915.14;;;20.62;67.47
75555;BME280;66087;53.126;17.960;2023-09-19T01:09:25;99913.36;;;20.57;67.74
75555;BME280;66087;53.126;17.960;2023-09-19T01:12:30;99907.57;;;20.53;67.48
75555;BME280;66087;53.126;17.960;2023-09-19T01:15:54;99903.48;;;20.48;68.14
75555;BME280;66087;53.126;17.960;2023-09-19T01:19:07;99904.16;;;20.45;68.23
75555;BME280;66087;53.126;17.960;2023-09-19T01:21:57;99903.53;;;20.42;68.16
75555;BME280;66087;53.126;17.960;2023-09-19T01:28:06;99895.46;;;20.34;68.63
75555;BME280;66087;53.126;17.960;2023-09-19T01:31:03;99883.58;;;20.28;68.64
75555;BME280;66087;53.126;17.960;2023-09-19T01:36:43;99851.05;;;20.21;68.94
75555;BME280;66087;53.126;17.960;2023-09-19T01:39:18;99849.22;;;20.19;69.14
75555;BME280;66087;53.126;17.960;2023-09-19T01:42:12;99850.63;;;20.17;69.28
75555;BME280;66087;53.126;17.960;2023-09-19T01:44:59;99860.08;;;20.15;69.38
75555;BME280;66087;53.126;17.960;2023-09-19T01:47:52;99875.61;;;20.10;69.91
75555;BME280;66087;53.126;17.960;2023-09-19T01:50:34;99887.27;;;20.04;71.07
75555;BME280;66087;53.126;17.960;2023-09-19T01:53:43;99880.95;;;19.98;70.94
75555;BME280;66087;53.126;17.960;2023-09-19T01:56:45;99872.83;;;19.90;71.67
75555;BME280;66087;53.126;17.960;2023-09-19T01:59:48;99878.96;;;19.85;71.39
75555;BME280;66087;53.126;17.960;2023-09-19T02:02:53;99881.46;;;19.79;71.56
75555;BME280;66087;53.126;17.960;2023-09-19T02:05:51;99884.04;;;19.74;71.85
75555;BME280;66087;53.126;17.960;2023-09-19T02:08:46;99892.88;;;19.70;72.65
75555;BME280;66087;53.126;17.960;2023-09-19T02:11:40;99889.53;;;19.65;72.71
75555;BME280;66087;53.126;17.960;2023-09-19T02:14:33;99888.20;;;19.58;73.39
75555;BME280;66087;53.126;17.960;2023-09-19T02:17:27;99896.77;;;19.50;73.19
75555;BME280;66087;53.126;17.960;2023-09-19T02:20:21;99897.02;;;19.44;74.33
75555;BME280;66087;53.126;17.960;2023-09-19T02:22:56;99889.45;;;19.37;75.46
75555;BME280;66087;53.126;17.960;2023-09-19T02:25:42;99888.17;;;19.30;75.89
75555;BME280;66087;53.126;17.960;2023-09-19T02:28:17;99884.13;;;19.22;75.78
75555;BME280;66087;53.126;17.960;2023-09-19T02:31:30;99875.67;;;19.18;75.13
75555;BME280;66087;53.126;17.960;2023-09-19T02:34:04;99882.30;;;19.18;76.07
75555;BME280;66087;53.126;17.960;2023-09-19T02:36:51;99884.20;;;19.15;76.34
75555;BME280;66087;53.126;17.960;2023-09-19T02:39:27;99888.05;;;19.13;75.91
75555;BME280;66087;53.126;17.960;2023-09-19T02:42:14;99894.94;;;19.11;75.58
75555;BME280;66087;53.126;17.960;2023-09-19T02:44:47;99899.67;;;19.09;76.07
75555;BME280;66087;53.126;17.960;2023-09-19T02:47:34;99888.27;;;19.06;76.61
75555;BME280;66087;53.126;17.960;2023-09-19T02:50:08;99911.01;;;19.04;78.05
75555;BME280;66087;53.126;17.960;2023-09-19T02:52:57;99922.02;;;18.91;79.15
75555;BME280;66087;53.126;17.960;2023-09-19T02:55:30;99899.45;;;18.77;80.11
75555;BME280;66087;53.126;17.960;2023-09-19T02:58:18;99901.89;;;18.67;80.62
75555;BME280;66087;53.126;17.960;2023-09-19T03:00:51;99914.34;;;18.59;81.00
75555;BME280;66087;53.126;17.960;2023-09-19T03:03:38;99917.33;;;18.51;80.74
75555;BME280;66087;53.126;17.960;2023-09-19T03:06:13;99904.98;;;18.46;81.12
75555;BME280;66087;53.126;17.960;2023-09-19T03:09:00;99908.33;;;18.41;81.70
75555;BME280;66087;53.126;17.960;2023-09-19T03:11:53;99912.28;;;18.35;82.29
75555;BME280;66087;53.126;17.960;2023-09-19T03:14:42;99914.75;;;18.32;81.53
75555;BME280;66087;53.126;17.960;2023-09-19T03:17:15;99907.31;;;18.30;81.28
75555;BME280;66087;53.126;17.960;2023-09-19T03:20:03;99902.17;;;18.27;82.41
75555;BME280;66087;53.126;17.960;2023-09-19T03:22:47;99904.88;;;18.24;81.88
75555;BME280;66087;53.126;17.960;2023-09-19T03:25:34;99905.36;;;18.23;82.58
75555;BME280;66087;53.126;17.960;2023-09-19T03:28:09;99905.52;;;18.20;83.69
75555;BME280;66087;53.126;17.960;2023-09-19T03:31:04;99906.88;;;18.17;83.51
75555;BME280;66087;53.126;17.960;2023-09-19T03:33:38;99899.90;;;18.15;84.25
75555;BME280;66087;53.126;17.960;2023-09-19T03:36:26;99898.56;;;18.13;83.98
75555;BME280;66087;53.126;17.960;2023-09-19T03:39:02;99894.03;;;18.11;84.17
75555;BME280;66087;53.126;17.960;2023-09-19T03:41:49;99892.30;;;18.10;84.28
75555;BME280;66087;53.126;17.960;2023-09-19T03:44:22;99893.77;;;18.08;84.12
75555;BME280;66087;53.126;17.960;2023-09-19T03:47:09;99906.23;;;18.07;84.53
75555;BME280;66087;53.126;17.960;2023-09-19T03:49:42;99906.61;;;18.06;84.69
75555;BME280;66087;53.126;17.960;2023-09-19T03:52:29;99905.55;;;18.05;84.75
75555;BME280;66087;53.126;17.960;2023-09-19T03:55:03;99905.70;;;18.05;84.15
75555;BME280;66087;53.126;17.960;2023-09-19T03:57:52;99903.70;;;18.06;84.66
75555;BME280;66087;53.126;17.960;2023-09-19T04:00:27;99902.20;;;18.06;84.10
75555;BME280;66087;53.126;17.960;2023-09-19T04:03:14;99902.29;;;18.09;84.12
75555;BME280;66087;53.126;17.960;2023-09-19T04:05:52;99893.24;;;18.09;84.39
75555;BME280;66087;53.126;17.960;2023-09-19T04:08:46;99880.35;;;18.09;84.18
75555;BME280;66087;53.126;17.960;2023-09-19T04:11:40;99877.54;;;18.08;84.35
75555;BME280;66087;53.126;17.960;2023-09-19T04:14:34;99868.21;;;18.07;85.17
75555;BME280;66087;53.126;17.960;2023-09-19T04:17:28;99864.77;;;18.04;84.50
75555;BME280;66087;53.126;17.960;2023-09-19T04:20:22;99874.84;;;18.02;84.59
75555;BME280;66087;53.126;17.960;2023-09-19T04:23:16;99877.58;;;17.98;85.33
75555;BME280;66087;53.126;17.960;2023-09-19T04:25:59;99867.84;;;17.92;85.05
75555;BME280;66087;53.126;17.960;2023-09-19T04:28:41;99874.83;;;17.88;85.11
75555;BME280;66087;53.126;17.960;2023-09-19T04:31:21;99876.42;;;17.85;86.10
75555;BME280;66087;53.126;17.960;2023-09-19T04:34:01;99880.06;;;17.81;85.97
75555;BME280;66087;53.126;17.960;2023-09-19T04:36:45;99891.80;;;17.77;86.16
75555;BME280;66087;53.126;17.960;2023-09-19T04:39:41;99896.23;;;17.73;87.19
75555;BME280;66087;53.126;17.960;2023-09-19T04:42:37;99896.18;;;17.70;86.56
75555;BME280;66087;53.126;17.960;2023-09-19T04:45:31;99895.93;;;17.69;86.70
75555;BME280;66087;53.126;17.960;2023-09-19T04:48:25;99892.37;;;17.69;86.22
75555;BME280;66087;53.126;17.960;2023-09-19T04:51:22;99896.87;;;17.70;86.79
75555;BME280;66087;53.126;17.960;2023-09-19T04:54:21;99895.38;;;17.70;86.75
75555;BME280;66087;53.126;17.960;2023-09-19T04:57:16;99892.96;;;17.71;87.27
75555;BME280;66087;53.126;17.960;2023-09-19T05:00:12;99883.70;;;17.68;86.38
75555;BME280;66087;53.126;17.960;2023-09-19T05:03:08;99890.52;;;17.78;86.75
75555;BME280;66087;53.126;17.960;2023-09-19T05:06:02;99891.55;;;17.81;86.54
75555;BME280;66087;53.126;17.960;2023-09-19T05:08:56;99891.62;;;17.81;87.39
75555;BME280;66087;53.126;17.960;2023-09-19T05:11:36;99883.34;;;17.82;86.88
75555;BME280;66087;53.126;17.960;2023-09-19T05:14:16;99840.83;;;17.56;86.97
75555;BME280;66087;53.126;17.960;2023-09-19T05:16:56;99885.52;;;17.85;87.17
75555;BME280;66087;53.126;17.960;2023-09-19T05:19:38;99890.62;;;17.87;86.85
75555;BME280;66087;53.126;17.960;2023-09-19T05:22:18;99896.91;;;17.90;86.89
75555;BME280;66087;53.126;17.960;2023-09-19T05:24:59;99894.17;;;17.95;86.76
75555;BME280;66087;53.126;17.960;2023-09-19T05:27:39;99894.48;;;18.01;87.24
75555;BME280;66087;53.126;17.960;2023-09-19T05:30:20;99901.75;;;18.03;87.56
75555;BME280;66087;53.126;17.960;2023-09-19T05:32:53;99906.55;;;18.06;87.34
75555;BME280;66087;53.126;17.960;2023-09-19T05:35:27;99905.20;;;18.06;86.87
75555;BME280;66087;53.126;17.960;2023-09-19T05:38:07;99914.25;;;18.08;86.69
75555;BME280;66087;53.126;17.960;2023-09-19T05:40:49;99910.54;;;18.07;87.08
75555;BME280;66087;53.126;17.960;2023-09-19T05:43:30;99921.49;;;18.04;87.31
75555;BME280;66087;53.126;17.960;2023-09-19T05:46:11;99918.72;;;18.00;87.27
75555;BME280;66087;53.126;17.960;2023-09-19T05:48:51;99915.06;;;17.99;87.10
75555;BME280;66087;53.126;17.960;2023-09-19T05:51:31;99913.41;;;17.99;87.42
75555;BME280;66087;53.126;17.960;2023-09-19T05:54:11;99911.54;;;18.01;87.05
75555;BME280;66087;53.126;17.960;2023-09-19T05:56:51;99904.79;;;18.02;86.63
75555;BME280;66087;53.126;17.960;2023-09-19T05:59:31;99907.84;;;18.04;86.66
75555;BME280;66087;53.126;17.960;2023-09-19T06:02:33;99921.61;;;18.06;86.68
75555;BME280;66087;53.126;17.960;2023-09-19T06:05:13;99927.11;;;18.05;87.03
75555;BME280;66087;53.126;17.960;2023-09-19T06:07:54;99927.49;;;18.04;86.83
75555;BME280;66087;53.126;17.960;2023-09-19T06:11:21;99932.88;;;18.03;86.65
75555;BME280;66087;53.126;17.960;2023-09-19T06:13:54;99935.23;;;18.03;86.15
75555;BME280;66087;53.126;17.960;2023-09-19T06:16:41;99933.45;;;18.04;86.50
75555;BME280;66087;53.126;17.960;2023-09-19T06:19:16;99940.91;;;18.05;86.06
75555;BME280;66087;53.126;17.960;2023-09-19T06:22:06;99935.95;;;18.07;86.03
75555;BME280;66087;53.126;17.960;2023-09-19T06:24:42;99941.66;;;18.08;86.48
75555;BME280;66087;53.126;17.960;2023-09-19T06:27:29;99939.84;;;18.06;86.41
75555;BME280;66087;53.126;17.960;2023-09-19T06:30:02;99938.95;;;18.04;86.39
75555;BME280;66087;53.126;17.960;2023-09-19T06:32:45;99947.70;;;18.11;86.26
75555;BME280;66087;53.126;17.960;2023-09-19T06:35:26;99952.00;;;18.14;86.06
75555;BME280;66087;53.126;17.960;2023-09-19T06:38:06;99949.67;;;18.12;86.08
75555;BME280;66087;53.126;17.960;2023-09-19T06:40:47;99958.05;;;18.20;86.01
75555;BME280;66087;53.126;17.960;2023-09-19T06:43:21;99962.86;;;18.24;86.10
75555;BME280;66087;53.126;17.960;2023-09-19T06:46:10;99963.59;;;18.22;85.95
75555;BME280;66087;53.126;17.960;2023-09-19T06:48:46;99961.21;;;18.20;86.02
75555;BME280;66087;53.126;17.960;2023-09-19T06:51:33;99965.01;;;18.20;86.17
75555;BME280;66087;53.126;17.960;2023-09-19T06:54:07;99951.02;;;18.11;86.25
75555;BME280;66087;53.126;17.960;2023-09-19T06:56:54;99970.02;;;18.23;86.00
75555;BME280;66087;53.126;17.960;2023-09-19T06:59:30;99969.01;;;18.26;85.94
75555;BME280;66087;53.126;17.960;2023-09-19T07:02:18;99959.98;;;18.22;85.73
75555;BME280;66087;53.126;17.960;2023-09-19T07:04:52;99971.35;;;18.38;85.53
75555;BME280;66087;53.126;17.960;2023-09-19T07:07:40;99966.85;;;18.43;85.28
75555;BME280;66087;53.126;17.960;2023-09-19T07:10:14;99975.23;;;18.59;84.88
75555;BME280;66087;53.126;17.960;2023-09-19T07:13:08;99979.65;;;18.74;84.60
75555;BME280;66087;53.126;17.960;2023-09-19T07:15:44;99980.37;;;18.83;84.35
75555;BME280;66087;53.126;17.960;2023-09-19T07:18:31;99984.72;;;18.94;83.89
75555;BME280;66087;53.126;17.960;2023-09-19T07:21:05;99986.35;;;19.00;83.67
75555;BME280;66087;53.126;17.960;2023-09-19T07:23:55;99981.34;;;18.99;83.85
75555;BME280;66087;53.126;17.960;2023-09-19T07:26:35;99984.65;;;18.97;83.94
75555;BME280;66087;53.126;17.960;2023-09-19T07:29:15;99989.29;;;19.02;83.44
75555;BME280;66087;53.126;17.960;2023-09-19T07:31:55;99992.05;;;19.11;83.03
75555;BME280;66087;53.126;17.960;2023-09-19T07:34:35;99993.45;;;19.23;82.54
75555;BME280;66087;53.126;17.960;2023-09-19T07:37:18;99992.50;;;19.37;82.83
75555;BME280;66087;53.126;17.960;2023-09-19T07:40:00;100002.88;;;19.48;81.93
75555;BME280;66087;53.126;17.960;2023-09-19T07:42:34;99999.08;;;19.49;81.76
75555;BME280;66087;53.126;17.960;2023-09-19T07:45:26;100007.57;;;19.49;82.27
75555;BME280;66087;53.126;17.960;2023-09-19T07:48:07;100011.52;;;19.44;82.10
75555;BME280;66087;53.126;17.960;2023-09-19T07:50:47;100019.83;;;19.40;81.81
75555;BME280;66087;53.126;17.960;2023-09-19T07:56:39;100024.41;;;19.11;81.94
75555;BME280;66087;53.126;17.960;2023-09-19T07:59:40;100028.77;;;19.11;82.05
75555;BME280;66087;53.126;17.960;2023-09-19T08:02:20;100027.64;;;19.16;81.92
75555;BME280;66087;53.126;17.960;2023-09-19T08:05:02;100030.64;;;19.23;81.19
75555;BME280;66087;53.126;17.960;2023-09-19T08:07:45;100025.86;;;19.25;81.34
75555;BME280;66087;53.126;17.960;2023-09-19T08:10:28;100022.30;;;19.30;81.57
75555;BME280;66087;53.126;17.960;2023-09-19T08:13:08;100021.86;;;19.39;80.94
75555;BME280;66087;53.126;17.960;2023-09-19T08:15:53;100028.52;;;19.61;80.66
75555;BME280;66087;53.126;17.960;2023-09-19T08:18:33;100033.22;;;19.67;80.67
75555;BME280;66087;53.126;17.960;2023-09-19T08:21:14;100038.84;;;19.61;80.53
75555;BME280;66087;53.126;17.960;2023-09-19T08:23:55;100037.34;;;19.54;80.93
75555;BME280;66087;53.126;17.960;2023-09-19T08:26:36;100033.48;;;19.49;80.73
75555;BME280;66087;53.126;17.960;2023-09-19T08:29:17;100033.90;;;19.51;80.86
75555;BME280;66087;53.126;17.960;2023-09-19T08:31:50;100036.85;;;19.59;80.58
75555;BME280;66087;53.126;17.960;2023-09-19T08:34:24;100043.73;;;19.74;80.30
75555;BME280;66087;53.126;17.960;2023-09-19T08:37:06;100052.05;;;20.02;79.47
75555;BME280;66087;53.126;17.960;2023-09-19T08:39:39;100057.44;;;20.31;78.89
75555;BME280;66087;53.126;17.960;2023-09-19T08:42:14;100065.71;;;20.46;78.88
75555;BME280;66087;53.126;17.960;2023-09-19T08:45:17;100071.20;;;20.61;78.48
75555;BME280;66087;53.126;17.960;2023-09-19T08:47:59;100074.13;;;20.78;77.48
75555;BME280;66087;53.126;17.960;2023-09-19T08:50:43;100076.31;;;20.81;77.10
75555;BME280;66087;53.126;17.960;2023-09-19T08:53:51;100076.63;;;20.69;77.76
75555;BME280;66087;53.126;17.960;2023-09-19T08:56:33;100077.16;;;20.67;76.87
75555;BME280;66087;53.126;17.960;2023-09-19T08:59:14;100083.02;;;20.91;76.83
75555;BME280;66087;53.126;17.960;2023-09-19T09:02:16;100087.21;;;21.16;75.17
75555;BME280;66087;53.126;17.960;2023-09-19T09:04:58;100084.48;;;21.22;73.39
75555;BME280;66087;53.126;17.960;2023-09-19T09:07:40;100083.60;;;21.52;73.53
75555;BME280;66087;53.126;17.960;2023-09-19T09:10:21;100089.06;;;21.86;72.34
75555;BME280;66087;53.126;17.960;2023-09-19T09:13:03;100086.05;;;22.04;68.45
75555;BME280;66087;53.126;17.960;2023-09-19T09:15:43;100079.52;;;22.08;68.09
75555;BME280;66087;53.126;17.960;2023-09-19T09:18:25;100091.33;;;22.22;67.08
75555;BME280;66087;53.126;17.960;2023-09-19T09:21:06;100084.87;;;22.19;67.59
75555;BME280;66087;53.126;17.960;2023-09-19T09:23:48;100082.90;;;22.19;68.12
75555;BME280;66087;53.126;17.960;2023-09-19T09:26:42;100075.20;;;22.33;68.04
75555;BME280;66087;53.126;17.960;2023-09-19T09:32:30;100077.13;;;22.49;68.35
75555;BME280;66087;53.126;17.960;2023-09-19T09:35:07;100081.70;;;22.49;68.04
75555;BME280;66087;53.126;17.960;2023-09-19T09:37:59;100082.36;;;22.56;67.41
75555;BME280;66087;53.126;17.960;2023-09-19T09:40:49;100087.90;;;22.55;66.85
75555;BME280;66087;53.126;17.960;2023-09-19T09:43:41;100094.96;;;22.52;66.29
75555;BME280;66087;53.126;17.960;2023-09-19T09:46:21;100091.98;;;22.47;66.17
75555;BME280;66087;53.126;17.960;2023-09-19T09:49:28;100094.71;;;22.50;65.39
75555;BME280;66087;53.126;17.960;2023-09-19T09:52:08;100100.00;;;22.50;65.57
75555;BME280;66087;53.126;17.960;2023-09-19T09:55:10;100095.27;;;22.45;65.41
75555;BME280;66087;53.126;17.960;2023-09-19T09:58:15;100095.42;;;22.47;65.31
75555;BME280;66087;53.126;17.960;2023-09-19T10:01:03;100096.27;;;22.63;64.48
75555;BME280;66087;53.126;17.960;2023-09-19T10:03:58;100098.78;;;22.93;63.82
75555;BME280;66087;53.126;17.960;2023-09-19T10:06:41;100111.81;;;23.04;62.85
75555;BME280;66087;53.126;17.960;2023-09-19T10:09:30;100103.68;;;23.12;62.71
75555;BME280;66087;53.126;17.960;2023-09-19T10:12:11;100108.08;;;23.27;62.53
75555;BME280;66087;53.126;17.960;2023-09-19T10:15:00;100115.83;;;23.18;62.10
75555;BME280;66087;53.126;17.960;2023-09-19T10:17:36;100124.80;;;22.89;61.16
75555;BME280;66087;53.126;17.960;2023-09-19T10:20:23;100119.86;;;22.61;61.63
75555;BME280;66087;53.126;17.960;2023-09-19T10:23:08;100129.20;;;22.38;60.96
75555;BME280;66087;53.126;17.960;2023-09-19T10:26:01;100133.98;;;22.32;60.85
75555;BME280;66087;53.126;17.960;2023-09-19T10:28:42;100138.98;;;22.40;59.63
75555;BME280;66087;53.126;17.960;2023-09-19T10:31:23;100123.69;;;22.41;59.76
75555;BME280;66087;53.126;17.960;2023-09-19T10:34:05;100148.21;;;22.52;57.78
75555;BME280;66087;53.126;17.960;2023-09-19T10:36:47;100145.79;;;22.51;58.74
75555;BME280;66087;53.126;17.960;2023-09-19T10:39:29;100146.50;;;22.62;58.60
75555;BME280;66087;53.126;17.960;2023-09-19T10:42:15;100158.60;;;22.64;56.37
75555;BME280;66087;53.126;17.960;2023-09-19T10:45:00;100149.66;;;22.75;55.22
75555;BME280;66087;53.126;17.960;2023-09-19T10:47:53;100151.17;;;22.86;54.80
75555;BME280;66087;53.126;17.960;2023-09-19T10:50:30;100146.61;;;23.01;55.83
75555;BME280;66087;53.126;17.960;2023-09-19T10:53:18;100145.23;;;23.16;55.46
75555;BME280;66087;53.126;17.960;2023-09-19T10:55:59;100144.59;;;23.35;55.39
75555;BME280;66087;53.126;17.960;2023-09-19T10:59:12;100138.45;;;23.52;55.63
75555;BME280;66087;53.126;17.960;2023-09-19T11:01:51;100127.12;;;23.48;54.83
75555;BME280;66087;53.126;17.960;2023-09-19T11:04:43;100123.14;;;23.40;55.72
75555;BME280;66087;53.126;17.960;2023-09-19T11:07:21;100128.86;;;23.29;54.56
75555;BME280;66087;53.126;17.960;2023-09-19T11:13:25;100130.30;;;22.90;54.00
75555;BME280;66087;53.126;17.960;2023-09-19T11:16:26;100125.88;;;22.73;53.58
75555;BME280;66087;53.126;17.960;2023-09-19T11:19:20;100125.31;;;22.73;54.15
75555;BME280;66087;53.126;17.960;2023-09-19T11:22:16;100129.64;;;22.86;53.74
75555;BME280;66087;53.126;17.960;2023-09-19T11:28:42;100148.23;;;23.30;50.92
75555;BME280;66087;53.126;17.960;2023-09-19T11:31:42;100145.04;;;23.58;50.10
75555;BME280;66087;53.126;17.960;2023-09-19T11:34:40;100140.17;;;23.97;50.18
75555;BME280;66087;53.126;17.960;2023-09-19T11:37:59;100146.05;;;24.35;48.03
75555;BME280;66087;53.126;17.960;2023-09-19T11:44:33;100140.30;;;24.60;48.11
75555;BME280;66087;53.126;17.960;2023-09-19T11:47:10;100158.55;;;24.72;47.56
75555;BME280;66087;53.126;17.960;2023-09-19T11:50:01;100164.89;;;24.55;46.95
75555;BME280;66087;53.126;17.960;2023-09-19T11:52:35;100164.94;;;24.42;47.18
75555;BME280;66087;53.126;17.960;2023-09-19T11:55:28;100142.23;;;24.37;47.28
75555;BME280;66087;53.126;17.960;2023-09-19T11:58:15;100164.45;;;24.48;46.37
75555;BME280;66087;53.126;17.960;2023-09-19T12:01:13;100168.74;;;24.55;45.14
75555;BME280;66087;53.126;17.960;2023-09-19T12:04:36;100182.77;;;24.65;44.38
75555;BME280;66087;53.126;17.960;2023-09-19T12:07:42;100194.08;;;24.68;43.59
75555;BME280;66087;53.126;17.960;2023-09-19T12:10:46;100199.95;;;24.58;43.65
75555;BME280;66087;53.126;17.960;2023-09-19T12:13:43;100199.19;;;24.51;43.97
75555;BME280;66087;53.126;17.960;2023-09-19T12:16:37;100198.94;;;24.53;43.71
75555;BME280;66087;53.126;17.960;2023-09-19T12:19:33;100194.09;;;24.66;44.26
75555;BME280;66087;53.126;17.960;2023-09-19T12:22:39;100199.14;;;24.91;42.57
75555;BME280;66087;53.126;17.960;2023-09-19T12:25:43;100195.48;;;24.68;43.40
75555;BME280;66087;53.126;17.960;2023-09-19T12:28:41;100208.38;;;24.47;42.80
75555;BME280;66087;53.126;17.960;2023-09-19T12:31:17;100194.95;;;24.25;42.88
75555;BME280;66087;53.126;17.960;2023-09-19T12:34:08;100203.34;;;24.14;43.51
75555;BME280;66087;53.126;17.960;2023-09-19T12:36:43;100217.20;;;23.93;42.77
75555;BME280;66087;53.126;17.960;2023-09-19T12:39:30;100215.16;;;23.86;43.66
75555;BME280;66087;53.126;17.960;2023-09-19T12:42:04;100223.43;;;23.73;44.20
75555;BME280;66087;53.126;17.960;2023-09-19T12:44:56;100217.05;;;23.62;42.97
75555;BME280;66087;53.126;17.960;2023-09-19T12:47:30;100222.52;;;23.57;42.66
75555;BME280;66087;53.126;17.960;2023-09-19T12:50:17;100217.36;;;23.63;43.38
75555;BME280;66087;53.126;17.960;2023-09-19T12:52:52;100214.78;;;23.62;43.73
75555;BME280;66087;53.126;17.960;2023-09-19T12:55:40;100214.45;;;23.74;43.73
75555;BME280;66087;53.126;17.960;2023-09-19T12:58:15;100216.34;;;23.80;43.41
75555;BME280;66087;53.126;17.960;2023-09-19T13:01:02;100224.98;;;23.93;43.10
75555;BME280;66087;53.126;17.960;2023-09-19T13:10:20;100221.53;;;24.36;41.62
75555;BME280;66087;53.126;17.960;2023-09-19T13:13:23;100217.02;;;24.53;41.48
75555;BME280;66087;53.126;17.960;2023-09-19T13:16:01;100218.61;;;24.72;40.51
75555;BME280;66087;53.126;17.960;2023-09-19T13:18:56;100222.98;;;24.68;40.38
75555;BME280;66087;53.126;17.960;2023-09-19T13:21:50;100224.50;;;25.20;39.53
75555;BME280;66087;53.126;17.960;2023-09-19T13:24:44;100224.55;;;26.29;38.59
75555;BME280;66087;53.126;17.960;2023-09-19T13:27:38;100228.44;;;26.33;37.70
75555;BME280;66087;53.126;17.960;2023-09-19T13:30:13;100226.27;;;25.59;37.93
75555;BME280;66087;53.126;17.960;2023-09-19T13:33:09;100234.36;;;26.30;36.90
75555;BME280;66087;53.126;17.960;2023-09-19T13:35:53;100227.11;;;26.87;36.59
75555;BME280;66087;53.126;17.960;2023-09-19T13:38:41;100227.42;;;28.03;35.81
75555;BME280;66087;53.126;17.960;2023-09-19T13:41:17;100236.55;;;28.92;34.19
75555;BME280;66087;53.126;17.960;2023-09-19T13:44:06;100233.19;;;28.82;32.93
75555;BME280;66087;53.126;17.960;2023-09-19T13:46:40;100218.39;;;28.87;32.68
75555;BME280;66087;53.126;17.960;2023-09-19T13:49:34;100220.27;;;27.82;33.92
75555;BME280;66087;53.126;17.960;2023-09-19T13:52:29;100222.81;;;28.00;33.39
75555;BME280;66087;53.126;17.960;2023-09-19T13:55:25;100231.70;;;26.96;34.85
75555;BME280;66087;53.126;17.960;2023-09-19T13:58:19;100231.37;;;26.28;35.35
75555;BME280;66087;53.126;17.960;2023-09-19T14:01:13;100227.41;;;26.32;35.63
75555;BME280;66087;53.126;17.960;2023-09-19T14:04:07;100223.81;;;25.82;35.83
75555;BME280;66087;53.126;17.960;2023-09-19T14:07:22;100225.98;;;25.96;35.71
75555;BME280;66087;53.126;17.960;2023-09-19T14:10:16;100234.97;;;26.40;35.07
75555;BME280;66087;53.126;17.960;2023-09-19T14:13:30;100227.19;;;26.76;35.22
75555;BME280;66087;53.126;17.960;2023-09-19T14:16:44;100226.58;;;27.44;34.35
75555;BME280;66087;53.126;17.960;2023-09-19T14:19:24;100226.69;;;28.19;33.75
75555;BME280;66087;53.126;17.960;2023-09-19T14:22:05;100223.45;;;28.57;33.01
75555;BME280;66087;53.126;17.960;2023-09-19T14:24:47;100224.75;;;28.38;32.45
75555;BME280;66087;53.126;17.960;2023-09-19T14:27:27;100221.51;;;28.58;32.51
75555;BME280;66087;53.126;17.960;2023-09-19T14:30:11;100225.48;;;29.37;32.13
75555;BME280;66087;53.126;17.960;2023-09-19T14:32:52;100234.73;;;30.14;30.54
75555;BME280;66087;53.126;17.960;2023-09-19T14:35:37;100233.67;;;31.20;29.77
75555;BME280;66087;53.126;17.960;2023-09-19T14:38:17;100235.80;;;31.86;28.55
75555;BME280;66087;53.126;17.960;2023-09-19T14:41:00;100238.73;;;32.39;28.75
75555;BME280;66087;53.126;17.960;2023-09-19T14:43:40;100236.80;;;32.40;28.39
75555;BME280;66087;53.126;17.960;2023-09-19T14:46:21;100242.38;;;32.08;28.08
75555;BME280;66087;53.126;17.960;2023-09-19T14:49:01;100243.81;;;32.27;28.08
75555;BME280;66087;53.126;17.960;2023-09-19T14:51:44;100243.95;;;32.51;27.53
75555;BME280;66087;53.126;17.960;2023-09-19T14:54:32;100234.28;;;32.26;27.93